SBFLSBCT

Guest
Details From SBFL - Hercillo Luz
To SBCT - Afonso Pena
Flight Number -
Tags generated
Created
Modified
Stats Distance 133 nm / 246 km
Max Altitude 8,600 ft / 2,621 m
Waypoints 3
Social Downloads 3
Likes 0
Share VATSIM

Download

Looking for another format? Having issues loading an existing format? Contact us
Advertisement - Login to hide

Notes

Basic altitude profile: - Ascent Rate: 2500ft/min - Ascent Speed: 250kts - Cruise Altitude: 35000ft - Cruise Speed: 420kts - Descent Rate: 1500ft/min - Descent Speed: 250kts

Route

SBFL ALVOX SBCT

ID Type Via Altitude Latitude Longitude Leg Dist Tot Dist Heading (true) Name
O SBFL APT - 0 ft / 0 m -27.67049˚ -48.54718˚ - 0 nm - Hercillo Luz
ALVOX FIX - 8,600 ft / 2,621 m -26.17500˚ -48.97250˚ 92 nm 92 nm 346° / 346° -
O SBCT APT - 0 ft / 0 m -25.52888˚ -49.17306˚ 40 nm 132 nm 344° / 344° Afonso Pena

Altitude Profile

Advertisement - Login to hide

SBFL

Details ICAO SBFL (FLN)
Name Hercillo Luz
Region Brazil
Timezone America/Sao_Paulo (UTC-3.0)
Stats Elevation 19 ft / 6 m (AMSL)
Location -27.670487° -48.547180°
Runways 2
Magnetic Variation 19.381° W

METAR

SBFL 250700Z 00000KT CAVOK 13/13 Q1024

Decode

TAF

TAF SBFL 250300Z 2506/2606 27005KT 9999 SCT035 TN13/2508Z TX20/2518Z BECMG 2514/2516 12005KT BECMG 2600/2602 33005KT BKN030 RMK PDW

Decode

Departure Runways

ID Width Length Bearing (true) Bearing (mag) Surface Threshold Offset Overrun Length
03 148 ft / 45 m 4,939 ft / 1,505 m 11.55° 30.93° Concrete 0 ft / 0 m 0 ft / 0 m
14 148 ft / 45 m 7,543 ft / 2,299 m 121.30° 140.68° Asphalt 720 ft / 219 m 0 ft / 0 m
21 148 ft / 45 m 4,939 ft / 1,505 m 191.55° 210.93° Concrete 0 ft / 0 m 0 ft / 0 m
32 148 ft / 45 m 7,543 ft / 2,299 m 301.29° 320.67° Asphalt 0 ft / 0 m 200 ft / 61 m

SBCT

Details ICAO SBCT (CWB)
Name Afonso Pena
Region Brazil
Timezone America/Sao_Paulo (UTC-3.0)
Stats Elevation 2,988 ft / 911 m (AMSL)
Location -25.528885° -49.173062°
Runways 2
Magnetic Variation 19.675° W

METAR

SBCT 250700Z 09002KT 9999 OVC009 13/11 Q1025

Decode

TAF

TAF SBCT 250300Z 2506/2606 09006KT 9999 OVC006 TN12/2508Z TX17/2518Z BECMG 2510/2512 BKN010 BECMG 2513/2515 BKN020 BECMG 2521/2523 BKN009 RMK PDW

Decode

Destination Runways

ID Width Length Bearing (true) Bearing (mag) Surface Threshold Offset Overrun Length
11 148 ft / 45 m 5,909 ft / 1,801 m 91.79° 111.47° Asphalt 0 ft / 0 m 0 ft / 0 m
15 148 ft / 45 m 7,290 ft / 2,222 m 134.76° 154.44° Asphalt 0 ft / 0 m 190 ft / 58 m
29 148 ft / 45 m 5,909 ft / 1,801 m 271.78° 291.46° Asphalt 0 ft / 0 m 0 ft / 0 m
33 148 ft / 45 m 7,290 ft / 2,222 m 314.75° 334.43° Asphalt 0 ft / 0 m 185 ft / 56 m

Approach Navaids

Runway Type Ident Frequency Range Bearing (true) Bearing (mag) Slope Elevation
15 Localiser ICT 109.30 MHz 18 nm / 33 km 134.93° 154.60° - 2,990 ft / 911 m (AMSL)
15 Glidescope ICT 109.30 MHz 10 nm / 19 km 134.75° 154.43° 3.04° 2,990 ft / 911 m (AMSL)

Popular Alternatives